sensor_id;sensor_type;location;lat;lon;timestamp;temperature;humidity
37594;DHT22;23441;50.856;6.076;2023-04-23T00:02:15;9.20;99.90
37594;DHT22;23441;50.856;6.076;2023-04-23T00:04:49;9.20;99.90
37594;DHT22;23441;50.856;6.076;2023-04-23T00:07:18;9.10;99.90
37594;DHT22;23441;50.856;6.076;2023-04-23T00:09:45;9.10;99.90
37594;DHT22;23441;50.856;6.076;2023-04-23T00:12:11;9.10;99.90
37594;DHT22;23441;50.856;6.076;2023-04-23T00:14:37;9.10;99.90
37594;DHT22;23441;50.856;6.076;2023-04-23T00:17:02;9.20;99.90
37594;DHT22;23441;50.856;6.076;2023-04-23T00:19:28;9.20;99.90
37594;DHT22;23441;50.856;6.076;2023-04-23T00:21:54;9.20;99.90
37594;DHT22;23441;50.856;6.076;2023-04-23T00:24:20;9.10;99.90
37594;DHT22;23441;50.856;6.076;2023-04-23T00:26:45;9.10;99.90
37594;DHT22;23441;50.856;6.076;2023-04-23T00:29:11;9.10;99.90
37594;DHT22;23441;50.856;6.076;2023-04-23T00:31:37;9.10;99.90
37594;DHT22;23441;50.856;6.076;2023-04-23T00:34:03;9.00;99.90
37594;DHT22;23441;50.856;6.076;2023-04-23T00:36:29;9.00;99.90
37594;DHT22;23441;50.856;6.076;2023-04-23T00:38:54;9.00;99.90
37594;DHT22;23441;50.856;6.076;2023-04-23T00:41:20;8.90;99.90
37594;DHT22;23441;50.856;6.076;2023-04-23T00:43:46;8.80;99.90
37594;DHT22;23441;50.856;6.076;2023-04-23T00:46:11;8.70;99.90
37594;DHT22;23441;50.856;6.076;2023-04-23T00:48:38;8.70;99.90
37594;DHT22;23441;50.856;6.076;2023-04-23T00:51:05;8.60;99.90
37594;DHT22;23441;50.856;6.076;2023-04-23T00:53:32;8.60;99.90
37594;DHT22;23441;50.856;6.076;2023-04-23T00:55:59;8.50;99.90
37594;DHT22;23441;50.856;6.076;2023-04-23T00:58:26;8.50;99.90
37594;DHT22;23441;50.856;6.076;2023-04-23T01:00:52;8.50;99.90
37594;DHT22;23441;50.856;6.076;2023-04-23T01:03:18;8.40;99.90
37594;DHT22;23441;50.856;6.076;2023-04-23T01:05:47;8.40;99.90
37594;DHT22;23441;50.856;6.076;2023-04-23T01:08:14;8.40;99.90
37594;DHT22;23441;50.856;6.076;2023-04-23T01:10:44;8.30;99.90
37594;DHT22;23441;50.856;6.076;2023-04-23T01:13:15;8.30;99.90
37594;DHT22;23441;50.856;6.076;2023-04-23T01:15:42;8.30;99.90
37594;DHT22;23441;50.856;6.076;2023-04-23T01:18:08;8.30;99.90
37594;DHT22;23441;50.856;6.076;2023-04-23T01:20:34;8.20;99.90
37594;DHT22;23441;50.856;6.076;2023-04-23T01:23:02;8.20;99.90
37594;DHT22;23441;50.856;6.076;2023-04-23T01:25:28;8.20;99.90
37594;DHT22;23441;50.856;6.076;2023-04-23T01:27:54;8.20;99.90
37594;DHT22;23441;50.856;6.076;2023-04-23T01:30:20;8.20;99.90
37594;DHT22;23441;50.856;6.076;2023-04-23T01:32:46;8.10;99.90
37594;DHT22;23441;50.856;6.076;2023-04-23T01:35:13;8.10;99.90
37594;DHT22;23441;50.856;6.076;2023-04-23T01:37:38;8.10;99.90
37594;DHT22;23441;50.856;6.076;2023-04-23T01:40:07;8.10;99.90
37594;DHT22;23441;50.856;6.076;2023-04-23T01:42:33;8.10;99.90
37594;DHT22;23441;50.856;6.076;2023-04-23T01:44:59;8.10;99.90
37594;DHT22;23441;50.856;6.076;2023-04-23T01:47:25;8.00;99.90
37594;DHT22;23441;50.856;6.076;2023-04-23T01:49:51;8.00;99.90
37594;DHT22;23441;50.856;6.076;2023-04-23T01:52:17;8.00;99.90
37594;DHT22;23441;50.856;6.076;2023-04-23T01:54:42;8.00;99.90
37594;DHT22;23441;50.856;6.076;2023-04-23T01:57:09;8.00;99.90
37594;DHT22;23441;50.856;6.076;2023-04-23T01:59:35;7.90;99.90
37594;DHT22;23441;50.856;6.076;2023-04-23T02:02:01;7.90;99.90
37594;DHT22;23441;50.856;6.076;2023-04-23T02:04:27;7.90;99.90
37594;DHT22;23441;50.856;6.076;2023-04-23T02:06:54;7.90;99.90
37594;DHT22;23441;50.856;6.076;2023-04-23T02:09:20;7.90;99.90
37594;DHT22;23441;50.856;6.076;2023-04-23T02:11:46;8.00;99.90
37594;DHT22;23441;50.856;6.076;2023-04-23T02:14:12;8.20;99.90
37594;DHT22;23441;50.856;6.076;2023-04-23T02:16:37;8.40;99.90
37594;DHT22;23441;50.856;6.076;2023-04-23T02:19:03;8.50;99.90
37594;DHT22;23441;50.856;6.076;2023-04-23T02:21:29;8.60;99.90
37594;DHT22;23441;50.856;6.076;2023-04-23T02:23:55;8.70;99.90
37594;DHT22;23441;50.856;6.076;2023-04-23T02:26:21;8.90;99.90
37594;DHT22;23441;50.856;6.076;2023-04-23T02:28:49;8.90;99.90
37594;DHT22;23441;50.856;6.076;2023-04-23T02:31:15;9.00;99.90
37594;DHT22;23441;50.856;6.076;2023-04-23T02:33:42;9.10;99.90
37594;DHT22;23441;50.856;6.076;2023-04-23T02:36:08;9.20;99.90
37594;DHT22;23441;50.856;6.076;2023-04-23T02:38:36;9.20;99.90
37594;DHT22;23441;50.856;6.076;2023-04-23T02:41:05;9.20;99.90
37594;DHT22;23441;50.856;6.076;2023-04-23T02:43:31;9.30;99.90
37594;DHT22;23441;50.856;6.076;2023-04-23T02:45:56;9.20;99.90
37594;DHT22;23441;50.856;6.076;2023-04-23T02:48:22;9.30;99.90
37594;DHT22;23441;50.856;6.076;2023-04-23T02:50:48;9.30;99.90
37594;DHT22;23441;50.856;6.076;2023-04-23T02:53:14;9.30;99.90
37594;DHT22;23441;50.856;6.076;2023-04-23T02:55:39;9.30;99.90
37594;DHT22;23441;50.856;6.076;2023-04-23T02:58:05;9.40;99.90
37594;DHT22;23441;50.856;6.076;2023-04-23T03:00:30;9.50;99.90
37594;DHT22;23441;50.856;6.076;2023-04-23T03:02:56;9.50;99.90
37594;DHT22;23441;50.856;6.076;2023-04-23T03:05:22;9.60;99.90
37594;DHT22;23441;50.856;6.076;2023-04-23T03:07:47;9.60;99.90
37594;DHT22;23441;50.856;6.076;2023-04-23T03:10:13;9.60;99.90
37594;DHT22;23441;50.856;6.076;2023-04-23T03:12:38;9.70;99.90
37594;DHT22;23441;50.856;6.076;2023-04-23T03:15:04;9.80;99.90
37594;DHT22;23441;50.856;6.076;2023-04-23T03:17:30;9.80;99.90
37594;DHT22;23441;50.856;6.076;2023-04-23T03:19:56;9.90;99.90
37594;DHT22;23441;50.856;6.076;2023-04-23T03:22:21;10.00;99.90
37594;DHT22;23441;50.856;6.076;2023-04-23T03:24:47;10.00;99.90
37594;DHT22;23441;50.856;6.076;2023-04-23T03:27:12;10.00;99.90
37594;DHT22;23441;50.856;6.076;2023-04-23T03:29:38;10.10;99.90
37594;DHT22;23441;50.856;6.076;2023-04-23T03:32:04;10.10;99.90
37594;DHT22;23441;50.856;6.076;2023-04-23T03:34:29;10.10;99.90
37594;DHT22;23441;50.856;6.076;2023-04-23T03:36:55;10.10;99.90
37594;DHT22;23441;50.856;6.076;2023-04-23T03:39:20;10.10;99.90
37594;DHT22;23441;50.856;6.076;2023-04-23T03:41:46;10.10;99.90
37594;DHT22;23441;50.856;6.076;2023-04-23T03:44:12;10.10;99.90
37594;DHT22;23441;50.856;6.076;2023-04-23T03:46:37;10.10;99.90
37594;DHT22;23441;50.856;6.076;2023-04-23T03:49:03;10.20;99.90
37594;DHT22;23441;50.856;6.076;2023-04-23T03:51:28;10.10;99.90
37594;DHT22;23441;50.856;6.076;2023-04-23T03:53:54;10.10;99.90
37594;DHT22;23441;50.856;6.076;2023-04-23T03:56:20;10.10;99.90
37594;DHT22;23441;50.856;6.076;2023-04-23T03:58:45;10.10;99.90
37594;DHT22;23441;50.856;6.076;2023-04-23T04:01:11;10.10;99.90
37594;DHT22;23441;50.856;6.076;2023-04-23T04:03:37;10.10;99.90
37594;DHT22;23441;50.856;6.076;2023-04-23T04:06:02;10.10;99.90
37594;DHT22;23441;50.856;6.076;2023-04-23T04:08:28;10.10;99.90
37594;DHT22;23441;50.856;6.076;2023-04-23T04:10:54;10.10;99.90
37594;DHT22;23441;50.856;6.076;2023-04-23T04:13:20;10.20;99.90
37594;DHT22;23441;50.856;6.076;2023-04-23T04:15:46;10.20;99.90
37594;DHT22;23441;50.856;6.076;2023-04-23T04:18:11;10.30;99.90
37594;DHT22;23441;50.856;6.076;2023-04-23T04:20:37;10.30;99.90
37594;DHT22;23441;50.856;6.076;2023-04-23T04:23:03;10.40;99.90
37594;DHT22;23441;50.856;6.076;2023-04-23T04:25:28;10.50;99.90
37594;DHT22;23441;50.856;6.076;2023-04-23T04:27:54;10.50;99.90
37594;DHT22;23441;50.856;6.076;2023-04-23T04:30:20;10.50;99.90
37594;DHT22;23441;50.856;6.076;2023-04-23T04:32:46;10.50;99.90
37594;DHT22;23441;50.856;6.076;2023-04-23T04:35:11;10.50;99.90
37594;DHT22;23441;50.856;6.076;2023-04-23T04:37:39;10.50;99.90
37594;DHT22;23441;50.856;6.076;2023-04-23T04:40:06;10.50;99.90
37594;DHT22;23441;50.856;6.076;2023-04-23T04:42:32;10.50;99.90
37594;DHT22;23441;50.856;6.076;2023-04-23T04:44:57;10.60;99.90
37594;DHT22;23441;50.856;6.076;2023-04-23T04:47:24;10.60;99.90
37594;DHT22;23441;50.856;6.076;2023-04-23T04:49:50;10.60;99.90
37594;DHT22;23441;50.856;6.076;2023-04-23T04:52:16;10.60;99.90
37594;DHT22;23441;50.856;6.076;2023-04-23T04:54:42;10.60;99.90
37594;DHT22;23441;50.856;6.076;2023-04-23T04:57:07;10.60;99.90
37594;DHT22;23441;50.856;6.076;2023-04-23T04:59:33;10.60;99.90
37594;DHT22;23441;50.856;6.076;2023-04-23T05:01:59;10.70;99.90
37594;DHT22;23441;50.856;6.076;2023-04-23T05:04:25;10.70;99.90
37594;DHT22;23441;50.856;6.076;2023-04-23T05:06:50;10.70;99.90
37594;DHT22;23441;50.856;6.076;2023-04-23T05:09:16;10.70;99.90
37594;DHT22;23441;50.856;6.076;2023-04-23T05:11:42;10.80;99.90
37594;DHT22;23441;50.856;6.076;2023-04-23T05:14:08;10.90;99.90
37594;DHT22;23441;50.856;6.076;2023-04-23T05:16:33;10.90;99.90
37594;DHT22;23441;50.856;6.076;2023-04-23T05:18:59;11.00;99.90
37594;DHT22;23441;50.856;6.076;2023-04-23T05:21:25;11.00;99.90
37594;DHT22;23441;50.856;6.076;2023-04-23T05:23:55;11.10;99.90
37594;DHT22;23441;50.856;6.076;2023-04-23T05:26:20;11.20;99.90
37594;DHT22;23441;50.856;6.076;2023-04-23T05:28:46;11.20;99.90
37594;DHT22;23441;50.856;6.076;2023-04-23T05:31:12;11.20;99.90
37594;DHT22;23441;50.856;6.076;2023-04-23T05:33:38;11.30;99.90
37594;DHT22;23441;50.856;6.076;2023-04-23T05:36:04;11.30;99.90
37594;DHT22;23441;50.856;6.076;2023-04-23T05:38:29;11.40;99.90
37594;DHT22;23441;50.856;6.076;2023-04-23T05:40:55;11.40;99.90
37594;DHT22;23441;50.856;6.076;2023-04-23T05:43:20;11.50;99.90
37594;DHT22;23441;50.856;6.076;2023-04-23T05:45:46;11.50;99.90
37594;DHT22;23441;50.856;6.076;2023-04-23T05:48:12;11.50;99.90
37594;DHT22;23441;50.856;6.076;2023-04-23T05:50:38;11.50;99.90
37594;DHT22;23441;50.856;6.076;2023-04-23T05:53:03;11.50;99.90
37594;DHT22;23441;50.856;6.076;2023-04-23T05:55:29;11.50;99.90
37594;DHT22;23441;50.856;6.076;2023-04-23T05:57:55;11.50;99.90
37594;DHT22;23441;50.856;6.076;2023-04-23T06:00:20;11.50;99.90
37594;DHT22;23441;50.856;6.076;2023-04-23T06:02:46;11.50;99.90
37594;DHT22;23441;50.856;6.076;2023-04-23T06:05:12;11.60;99.90
37594;DHT22;23441;50.856;6.076;2023-04-23T06:07:38;11.70;99.90
37594;DHT22;23441;50.856;6.076;2023-04-23T06:10:04;12.00;99.90
37594;DHT22;23441;50.856;6.076;2023-04-23T06:12:30;12.30;99.90
37594;DHT22;23441;50.856;6.076;2023-04-23T06:14:56;12.60;99.90
37594;DHT22;23441;50.856;6.076;2023-04-23T06:17:22;12.70;99.90
37594;DHT22;23441;50.856;6.076;2023-04-23T06:19:48;12.90;99.90
37594;DHT22;23441;50.856;6.076;2023-04-23T06:22:13;13.20;99.90
37594;DHT22;23441;50.856;6.076;2023-04-23T06:24:39;13.30;99.90
37594;DHT22;23441;50.856;6.076;2023-04-23T06:27:05;13.50;99.90
37594;DHT22;23441;50.856;6.076;2023-04-23T06:29:30;14.10;99.90
37594;DHT22;23441;50.856;6.076;2023-04-23T06:31:59;14.70;99.90
37594;DHT22;23441;50.856;6.076;2023-04-23T06:34:25;15.60;99.90
37594;DHT22;23441;50.856;6.076;2023-04-23T06:36:51;16.10;99.90
37594;DHT22;23441;50.856;6.076;2023-04-23T06:39:16;16.70;99.90
37594;DHT22;23441;50.856;6.076;2023-04-23T06:41:42;17.20;99.90
37594;DHT22;23441;50.856;6.076;2023-04-23T06:44:08;17.90;99.90
37594;DHT22;23441;50.856;6.076;2023-04-23T06:46:34;18.10;99.90
37594;DHT22;23441;50.856;6.076;2023-04-23T06:48:59;18.70;99.90
37594;DHT22;23441;50.856;6.076;2023-04-23T06:51:25;18.70;99.90
37594;DHT22;23441;50.856;6.076;2023-04-23T06:53:52;19.00;99.90
37594;DHT22;23441;50.856;6.076;2023-04-23T06:56:18;19.50;99.90
37594;DHT22;23441;50.856;6.076;2023-04-23T06:58:44;19.90;99.90
37594;DHT22;23441;50.856;6.076;2023-04-23T07:01:10;20.20;99.90
37594;DHT22;23441;50.856;6.076;2023-04-23T07:03:36;20.40;99.90
37594;DHT22;23441;50.856;6.076;2023-04-23T07:06:01;20.80;99.90
37594;DHT22;23441;50.856;6.076;2023-04-23T07:11:49;20.80;99.90
37594;DHT22;23441;50.856;6.076;2023-04-23T07:14:15;20.30;99.90
37594;DHT22;23441;50.856;6.076;2023-04-23T07:16:41;19.50;99.90
37594;DHT22;23441;50.856;6.076;2023-04-23T07:19:06;18.90;99.90
37594;DHT22;23441;50.856;6.076;2023-04-23T07:21:32;18.00;99.90
37594;DHT22;23441;50.856;6.076;2023-04-23T07:23:58;18.00;99.90
37594;DHT22;23441;50.856;6.076;2023-04-23T07:26:33;18.00;99.90
37594;DHT22;23441;50.856;6.076;2023-04-23T07:28:59;17.70;99.90
37594;DHT22;23441;50.856;6.076;2023-04-23T07:31:26;17.60;99.90
37594;DHT22;23441;50.856;6.076;2023-04-23T07:33:51;17.80;99.90
37594;DHT22;23441;50.856;6.076;2023-04-23T07:36:17;18.30;99.90
37594;DHT22;23441;50.856;6.076;2023-04-23T07:38:43;18.30;99.90
37594;DHT22;23441;50.856;6.076;2023-04-23T07:41:09;18.50;99.90
37594;DHT22;23441;50.856;6.076;2023-04-23T07:43:35;19.10;99.90
37594;DHT22;23441;50.856;6.076;2023-04-23T07:46:00;19.00;99.90
37594;DHT22;23441;50.856;6.076;2023-04-23T07:48:26;19.60;99.90
37594;DHT22;23441;50.856;6.076;2023-04-23T07:50:51;19.70;99.90
37594;DHT22;23441;50.856;6.076;2023-04-23T07:53:18;19.40;99.90
37594;DHT22;23441;50.856;6.076;2023-04-23T07:55:43;19.50;99.90
37594;DHT22;23441;50.856;6.076;2023-04-23T07:58:09;19.70;99.90
37594;DHT22;23441;50.856;6.076;2023-04-23T08:00:35;19.40;99.90
37594;DHT22;23441;50.856;6.076;2023-04-23T08:03:00;19.70;99.90
37594;DHT22;23441;50.856;6.076;2023-04-23T08:05:26;19.20;99.90
37594;DHT22;23441;50.856;6.076;2023-04-23T08:07:51;18.90;99.90
37594;DHT22;23441;50.856;6.076;2023-04-23T08:10:17;18.80;99.90
37594;DHT22;23441;50.856;6.076;2023-04-23T08:12:43;18.50;99.90
37594;DHT22;23441;50.856;6.076;2023-04-23T08:15:09;18.30;99.90
37594;DHT22;23441;50.856;6.076;2023-04-23T08:17:35;19.00;99.90
37594;DHT22;23441;50.856;6.076;2023-04-23T08:20:01;18.70;99.90
37594;DHT22;23441;50.856;6.076;2023-04-23T08:22:28;18.40;99.90
37594;DHT22;23441;50.856;6.076;2023-04-23T08:24:53;18.20;99.90
37594;DHT22;23441;50.856;6.076;2023-04-23T08:27:19;17.90;99.90
37594;DHT22;23441;50.856;6.076;2023-04-23T08:29:45;17.40;99.90
37594;DHT22;23441;50.856;6.076;2023-04-23T08:32:11;17.80;99.90
37594;DHT22;23441;50.856;6.076;2023-04-23T08:34:37;17.70;99.90
37594;DHT22;23441;50.856;6.076;2023-04-23T08:37:02;17.90;99.90
37594;DHT22;23441;50.856;6.076;2023-04-23T08:39:29;17.90;99.90
37594;DHT22;23441;50.856;6.076;2023-04-23T08:42:17;18.40;99.90
37594;DHT22;23441;50.856;6.076;2023-04-23T08:44:50;18.60;99.90
37594;DHT22;23441;50.856;6.076;2023-04-23T08:47:17;18.50;99.90
37594;DHT22;23441;50.856;6.076;2023-04-23T08:49:45;18.40;99.90
37594;DHT22;23441;50.856;6.076;2023-04-23T08:52:14;18.20;99.90
37594;DHT22;23441;50.856;6.076;2023-04-23T08:54:45;18.30;99.90
37594;DHT22;23441;50.856;6.076;2023-04-23T08:57:13;18.10;99.90
37594;DHT22;23441;50.856;6.076;2023-04-23T08:59:40;18.30;99.90
37594;DHT22;23441;50.856;6.076;2023-04-23T09:02:07;19.10;99.90
37594;DHT22;23441;50.856;6.076;2023-04-23T09:04:35;18.90;99.90
37594;DHT22;23441;50.856;6.076;2023-04-23T09:07:00;18.60;99.90
37594;DHT22;23441;50.856;6.076;2023-04-23T09:09:28;18.00;99.90
37594;DHT22;23441;50.856;6.076;2023-04-23T09:11:57;17.80;99.90
37594;DHT22;23441;50.856;6.076;2023-04-23T09:14:23;17.60;99.90
37594;DHT22;23441;50.856;6.076;2023-04-23T09:16:50;17.70;99.90
37594;DHT22;23441;50.856;6.076;2023-04-23T09:19:17;17.70;99.90
37594;DHT22;23441;50.856;6.076;2023-04-23T09:21:44;17.70;99.90
37594;DHT22;23441;50.856;6.076;2023-04-23T09:24:11;17.70;99.90
37594;DHT22;23441;50.856;6.076;2023-04-23T09:26:48;17.60;99.90
37594;DHT22;23441;50.856;6.076;2023-04-23T09:29:18;17.50;99.90
37594;DHT22;23441;50.856;6.076;2023-04-23T09:31:45;17.30;99.90
37594;DHT22;23441;50.856;6.076;2023-04-23T09:34:19;17.20;99.90
37594;DHT22;23441;50.856;6.076;2023-04-23T09:36:47;17.20;99.90
37594;DHT22;23441;50.856;6.076;2023-04-23T09:39:16;17.10;99.90
37594;DHT22;23441;50.856;6.076;2023-04-23T09:41:42;17.10;99.90
37594;DHT22;23441;50.856;6.076;2023-04-23T09:44:10;17.30;99.90
37594;DHT22;23441;50.856;6.076;2023-04-23T09:46:41;17.60;99.90
37594;DHT22;23441;50.856;6.076;2023-04-23T09:49:08;18.10;99.90
37594;DHT22;23441;50.856;6.076;2023-04-23T09:51:42;18.00;99.90
37594;DHT22;23441;50.856;6.076;2023-04-23T09:54:16;17.90;99.90
37594;DHT22;23441;50.856;6.076;2023-04-23T09:56:43;17.70;99.90
37594;DHT22;23441;50.856;6.076;2023-04-23T09:59:23;17.60;99.90
37594;DHT22;23441;50.856;6.076;2023-04-23T10:01:49;17.40;99.90
37594;DHT22;23441;50.856;6.076;2023-04-23T10:04:22;17.40;99.90
37594;DHT22;23441;50.856;6.076;2023-04-23T10:07:01;17.40;99.90
37594;DHT22;23441;50.856;6.076;2023-04-23T10:09:28;17.50;99.90
37594;DHT22;23441;50.856;6.076;2023-04-23T10:11:59;17.50;99.90
37594;DHT22;23441;50.856;6.076;2023-04-23T10:14:27;17.60;99.90
37594;DHT22;23441;50.856;6.076;2023-04-23T10:17:02;17.40;99.90
37594;DHT22;23441;50.856;6.076;2023-04-23T10:19:30;17.40;99.90
37594;DHT22;23441;50.856;6.076;2023-04-23T10:22:01;17.40;99.90
37594;DHT22;23441;50.856;6.076;2023-04-23T10:24:34;17.60;99.90
37594;DHT22;23441;50.856;6.076;2023-04-23T10:27:04;17.40;99.90
37594;DHT22;23441;50.856;6.076;2023-04-23T10:29:32;17.20;99.90
37594;DHT22;23441;50.856;6.076;2023-04-23T10:31:59;17.10;99.90
37594;DHT22;23441;50.856;6.076;2023-04-23T10:34:27;17.30;99.90
37594;DHT22;23441;50.856;6.076;2023-04-23T10:36:54;17.30;99.90
37594;DHT22;23441;50.856;6.076;2023-04-23T10:39:20;17.20;99.90
37594;DHT22;23441;50.856;6.076;2023-04-23T10:41:47;17.10;99.90
37594;DHT22;23441;50.856;6.076;2023-04-23T10:44:14;17.10;99.90
37594;DHT22;23441;50.856;6.076;2023-04-23T10:46:54;17.00;99.90
37594;DHT22;23441;50.856;6.076;2023-04-23T10:49:23;17.00;99.90
37594;DHT22;23441;50.856;6.076;2023-04-23T10:51:57;17.00;99.90
37594;DHT22;23441;50.856;6.076;2023-04-23T10:54:28;16.90;99.90
37594;DHT22;23441;50.856;6.076;2023-04-23T10:56:59;16.90;99.90
37594;DHT22;23441;50.856;6.076;2023-04-23T10:59:26;16.90;99.90
37594;DHT22;23441;50.856;6.076;2023-04-23T11:01:55;17.10;99.90
37594;DHT22;23441;50.856;6.076;2023-04-23T11:04:28;17.20;99.90
37594;DHT22;23441;50.856;6.076;2023-04-23T11:07:12;17.40;99.90
37594;DHT22;23441;50.856;6.076;2023-04-23T11:09:47;17.70;99.90
37594;DHT22;23441;50.856;6.076;2023-04-23T11:12:31;17.90;99.90
37594;DHT22;23441;50.856;6.076;2023-04-23T11:14:58;17.90;99.90
37594;DHT22;23441;50.856;6.076;2023-04-23T11:22:46;18.00;99.90
37594;DHT22;23441;50.856;6.076;2023-04-23T11:25:20;18.30;99.90
37594;DHT22;23441;50.856;6.076;2023-04-23T11:27:47;18.30;99.90
37594;DHT22;23441;50.856;6.076;2023-04-23T11:30:18;18.40;99.90
37594;DHT22;23441;50.856;6.076;2023-04-23T11:32:45;18.60;99.90
37594;DHT22;23441;50.856;6.076;2023-04-23T11:35:13;18.70;99.90
37594;DHT22;23441;50.856;6.076;2023-04-23T11:37:41;19.10;99.60
37594;DHT22;23441;50.856;6.076;2023-04-23T11:40:08;19.40;99.90
37594;DHT22;23441;50.856;6.076;2023-04-23T11:45:22;20.00;98.70
37594;DHT22;23441;50.856;6.076;2023-04-23T11:47:50;19.70;97.80
37594;DHT22;23441;50.856;6.076;2023-04-23T11:50:25;19.40;96.70
37594;DHT22;23441;50.856;6.076;2023-04-23T11:52:51;19.00;98.80
37594;DHT22;23441;50.856;6.076;2023-04-23T11:55:18;18.90;98.00
37594;DHT22;23441;50.856;6.076;2023-04-23T11:57:46;18.90;99.80
37594;DHT22;23441;50.856;6.076;2023-04-23T12:02:56;19.00;97.60
37594;DHT22;23441;50.856;6.076;2023-04-23T12:05:30;18.70;97.00
37594;DHT22;23441;50.856;6.076;2023-04-23T12:08:19;18.70;96.50
37594;DHT22;23441;50.856;6.076;2023-04-23T12:10:51;18.60;97.00
37594;DHT22;23441;50.856;6.076;2023-04-23T12:13:25;18.90;98.20
37594;DHT22;23441;50.856;6.076;2023-04-23T12:15:56;19.10;98.90
37594;DHT22;23441;50.856;6.076;2023-04-23T12:18:27;19.30;97.80
37594;DHT22;23441;50.856;6.076;2023-04-23T12:20:53;19.20;97.10
37594;DHT22;23441;50.856;6.076;2023-04-23T12:23:29;19.40;96.90
37594;DHT22;23441;50.856;6.076;2023-04-23T12:25:55;19.20;96.40
37594;DHT22;23441;50.856;6.076;2023-04-23T12:28:24;19.00;96.20
37594;DHT22;23441;50.856;6.076;2023-04-23T12:30:50;18.90;96.40
37594;DHT22;23441;50.856;6.076;2023-04-23T12:33:16;18.90;96.10
37594;DHT22;23441;50.856;6.076;2023-04-23T12:35:44;18.70;96.50
37594;DHT22;23441;50.856;6.076;2023-04-23T12:38:23;18.80;96.40
37594;DHT22;23441;50.856;6.076;2023-04-23T12:40:50;18.50;96.70
37594;DHT22;23441;50.856;6.076;2023-04-23T12:43:16;18.60;97.70
37594;DHT22;23441;50.856;6.076;2023-04-23T12:45:41;18.50;96.10
37594;DHT22;23441;50.856;6.076;2023-04-23T12:48:07;18.50;96.10
37594;DHT22;23441;50.856;6.076;2023-04-23T12:50:32;18.40;96.60
37594;DHT22;23441;50.856;6.076;2023-04-23T12:52:58;18.50;96.10
37594;DHT22;23441;50.856;6.076;2023-04-23T12:55:24;18.60;97.50
37594;DHT22;23441;50.856;6.076;2023-04-23T12:57:49;18.60;96.80
37594;DHT22;23441;50.856;6.076;2023-04-23T13:00:15;18.60;96.50
37594;DHT22;23441;50.856;6.076;2023-04-23T13:02:41;18.60;96.50
37594;DHT22;23441;50.856;6.076;2023-04-23T13:05:06;18.40;96.00
37594;DHT22;23441;50.856;6.076;2023-04-23T13:07:32;18.20;97.20
37594;DHT22;23441;50.856;6.076;2023-04-23T13:09:58;18.10;96.10
37594;DHT22;23441;50.856;6.076;2023-04-23T13:12:24;18.20;96.00
37594;DHT22;23441;50.856;6.076;2023-04-23T13:14:49;18.10;96.10
37594;DHT22;23441;50.856;6.076;2023-04-23T13:17:15;18.00;97.80
37594;DHT22;23441;50.856;6.076;2023-04-23T13:19:41;18.00;97.00
37594;DHT22;23441;50.856;6.076;2023-04-23T13:22:06;18.20;96.70
37594;DHT22;23441;50.856;6.076;2023-04-23T13:24:32;18.20;96.20
37594;DHT22;23441;50.856;6.076;2023-04-23T13:26:58;18.20;97.30
37594;DHT22;23441;50.856;6.076;2023-04-23T13:29:24;18.10;97.10
37594;DHT22;23441;50.856;6.076;2023-04-23T13:31:55;18.00;96.80
37594;DHT22;23441;50.856;6.076;2023-04-23T13:34:21;17.90;98.00
37594;DHT22;23441;50.856;6.076;2023-04-23T13:36:47;17.70;97.70
37594;DHT22;23441;50.856;6.076;2023-04-23T13:39:13;17.50;98.70
37594;DHT22;23441;50.856;6.076;2023-04-23T13:41:39;17.20;99.20
37594;DHT22;23441;50.856;6.076;2023-04-23T13:44:05;17.00;99.60
37594;DHT22;23441;50.856;6.076;2023-04-23T13:46:30;16.90;98.70
37594;DHT22;23441;50.856;6.076;2023-04-23T13:48:56;16.70;99.50
37594;DHT22;23441;50.856;6.076;2023-04-23T13:51:22;16.60;99.90
37594;DHT22;23441;50.856;6.076;2023-04-23T13:53:47;16.20;99.90
37594;DHT22;23441;50.856;6.076;2023-04-23T13:56:13;15.80;99.90
37594;DHT22;23441;50.856;6.076;2023-04-23T13:58:39;15.50;99.90
37594;DHT22;23441;50.856;6.076;2023-04-23T14:01:10;15.20;99.90
37594;DHT22;23441;50.856;6.076;2023-04-23T14:03:37;15.10;99.90
37594;DHT22;23441;50.856;6.076;2023-04-23T14:06:03;15.10;99.90
37594;DHT22;23441;50.856;6.076;2023-04-23T14:08:29;14.90;99.90
37594;DHT22;23441;50.856;6.076;2023-04-23T14:10:55;14.80;99.90
37594;DHT22;23441;50.856;6.076;2023-04-23T14:13:21;14.60;99.90
37594;DHT22;23441;50.856;6.076;2023-04-23T14:15:47;14.50;99.90
37594;DHT22;23441;50.856;6.076;2023-04-23T14:18:13;14.50;99.90
37594;DHT22;23441;50.856;6.076;2023-04-23T14:20:38;14.50;99.90
37594;DHT22;23441;50.856;6.076;2023-04-23T14:23:42;14.60;99.90
37594;DHT22;23441;50.856;6.076;2023-04-23T14:26:08;14.60;99.90
37594;DHT22;23441;50.856;6.076;2023-04-23T14:28:39;14.60;99.90
37594;DHT22;23441;50.856;6.076;2023-04-23T14:31:06;14.70;99.90
37594;DHT22;23441;50.856;6.076;2023-04-23T14:33:31;14.60;99.90
37594;DHT22;23441;50.856;6.076;2023-04-23T14:35:57;14.50;99.90
37594;DHT22;23441;50.856;6.076;2023-04-23T14:38:23;14.50;99.90
37594;DHT22;23441;50.856;6.076;2023-04-23T14:40:51;14.50;99.90
37594;DHT22;23441;50.856;6.076;2023-04-23T14:43:16;14.40;99.90
37594;DHT22;23441;50.856;6.076;2023-04-23T14:45:42;14.40;99.90
37594;DHT22;23441;50.856;6.076;2023-04-23T14:48:08;14.20;99.90
37594;DHT22;23441;50.856;6.076;2023-04-23T14:50:34;14.10;99.90
37594;DHT22;23441;50.856;6.076;2023-04-23T14:52:59;14.00;99.90
37594;DHT22;23441;50.856;6.076;2023-04-23T14:55:27;14.00;99.90
37594;DHT22;23441;50.856;6.076;2023-04-23T14:57:53;13.80;99.90
37594;DHT22;23441;50.856;6.076;2023-04-23T15:00:19;13.70;99.90
37594;DHT22;23441;50.856;6.076;2023-04-23T15:02:46;13.60;99.90
37594;DHT22;23441;50.856;6.076;2023-04-23T15:05:12;13.60;99.90
37594;DHT22;23441;50.856;6.076;2023-04-23T15:07:40;13.70;99.90
37594;DHT22;23441;50.856;6.076;2023-04-23T15:10:07;13.80;99.90
37594;DHT22;23441;50.856;6.076;2023-04-23T15:15:19;14.00;99.90
37594;DHT22;23441;50.856;6.076;2023-04-23T15:17:46;14.10;99.90
37594;DHT22;23441;50.856;6.076;2023-04-23T15:20:11;14.20;99.90
37594;DHT22;23441;50.856;6.076;2023-04-23T15:22:37;14.20;99.90
37594;DHT22;23441;50.856;6.076;2023-04-23T15:25:03;14.40;99.90
37594;DHT22;23441;50.856;6.076;2023-04-23T15:27:29;14.50;99.90
37594;DHT22;23441;50.856;6.076;2023-04-23T15:29:55;14.50;99.90
37594;DHT22;23441;50.856;6.076;2023-04-23T15:32:21;14.70;99.90
37594;DHT22;23441;50.856;6.076;2023-04-23T15:34:46;14.90;99.90
37594;DHT22;23441;50.856;6.076;2023-04-23T15:37:12;15.10;99.90
37594;DHT22;23441;50.856;6.076;2023-04-23T15:39:38;15.10;99.90
37594;DHT22;23441;50.856;6.076;2023-04-23T15:42:03;15.10;99.90
37594;DHT22;23441;50.856;6.076;2023-04-23T15:44:30;15.00;99.90
37594;DHT22;23441;50.856;6.076;2023-04-23T15:46:55;15.00;99.90
37594;DHT22;23441;50.856;6.076;2023-04-23T15:49:21;14.70;99.90
37594;DHT22;23441;50.856;6.076;2023-04-23T15:51:46;14.70;99.90